Time;durP1;ratioP1;P1;durP2;ratioP2;P2;SDS_P1;SDS_P2;PMS_P1;PMS_P2;Temp;Humidity;BMP_temperature;BMP_pressure;BME280_temperature;BME280_humidity;BME280_pressure;Samples;Min_cycle;Max_cycle;Signal;HPM_P1;HPM_P2
2022/03/25 00:01:52;;;;;;;19.83;14.00;;;;;;;4.76;100.00;101296.84;5021808;28;20696;-63
2022/03/25 00:04:18;;;;;;;23.13;15.50;;;;;;;4.71;100.00;101308.63;5022636;28;20230;-63
2022/03/25 00:06:44;;;;;;;19.80;15.13;;;;;;;4.65;100.00;101303.31;5026036;28;20184;-63
2022/03/25 00:09:09;;;;;;;16.57;13.90;;;;;;;4.61;100.00;101307.47;5023153;28;20208;-64
2022/03/25 00:11:35;;;;;;;17.50;13.60;;;;;;;4.57;100.00;101306.50;5024136;28;20190;-63
2022/03/25 00:14:01;;;;;;;18.97;14.47;;;;;;;4.57;100.00;101303.06;5030521;28;20190;-63
2022/03/25 00:16:26;;;;;;;17.97;13.87;;;;;;;4.55;100.00;101303.03;5041591;28;20179;-64
2022/03/25 00:18:52;;;;;;;22.17;14.17;;;;;;;4.56;100.00;101303.88;5034706;28;20209;-63
2022/03/25 00:21:17;;;;;;;19.57;14.03;;;;;;;4.55;100.00;101304.69;5027029;28;20199;-63
2022/03/25 00:23:43;;;;;;;18.40;14.53;;;;;;;4.52;100.00;101299.50;5023248;28;20298;-63
2022/03/25 00:26:08;;;;;;;19.33;13.63;;;;;;;4.50;100.00;101303.69;5032417;28;20704;-63
2022/03/25 00:28:34;;;;;;;18.90;13.67;;;;;;;4.47;100.00;101296.75;5023412;28;20739;-63
2022/03/25 00:30:59;;;;;;;15.53;13.17;;;;;;;4.48;100.00;101300.22;5026068;28;20181;-63
2022/03/25 00:33:24;;;;;;;15.00;13.07;;;;;;;4.46;100.00;101299.28;5032789;28;20263;-63
2022/03/25 00:35:50;;;;;;;17.57;14.33;;;;;;;4.45;100.00;101290.75;5023959;28;20192;-63
2022/03/25 00:38:15;;;;;;;17.13;14.70;;;;;;;4.44;100.00;101294.13;5024952;28;20220;-64
2022/03/25 00:40:42;;;;;;;17.37;13.17;;;;;;;4.42;100.00;101290.63;5028838;28;20197;-64
2022/03/25 00:43:09;;;;;;;15.03;13.13;;;;;;;4.38;100.00;101297.38;5018577;28;20215;-63
2022/03/25 00:45:35;;;;;;;18.37;13.50;;;;;;;4.36;100.00;101299.00;5027092;28;20187;-63
2022/03/25 00:48:00;;;;;;;18.57;14.33;;;;;;;4.30;100.00;101293.66;5023962;28;20667;-63
2022/03/25 00:50:26;;;;;;;18.67;14.40;;;;;;;4.26;100.00;101291.81;5025845;28;20218;-63
2022/03/25 00:52:52;;;;;;;16.70;14.33;;;;;;;4.18;100.00;101291.56;5020215;28;20206;-64
2022/03/25 00:55:18;;;;;;;15.20;13.27;;;;;;;4.14;100.00;101281.16;5021551;28;20187;-63
2022/03/25 00:57:44;;;;;;;16.43;12.83;;;;;;;4.11;100.00;101285.34;5026700;28;20184;-63
2022/03/25 01:00:10;;;;;;;15.00;13.37;;;;;;;4.11;100.00;101280.22;5029663;28;20548;-63
2022/03/25 01:02:35;;;;;;;18.10;15.00;;;;;;;4.14;100.00;101293.97;5026964;28;20188;-63
2022/03/25 01:05:01;;;;;;;18.90;14.67;;;;;;;4.11;100.00;101289.63;5028930;28;20199;-63
2022/03/25 01:07:26;;;;;;;16.70;14.10;;;;;;;4.11;100.00;101287.91;5028596;28;20560;-63
2022/03/25 01:09:52;;;;;;;18.27;14.97;;;;;;;4.12;100.00;101286.25;5025063;28;20797;-63
2022/03/25 01:12:17;;;;;;;15.57;13.70;;;;;;;4.09;100.00;101284.44;5033189;28;20274;-63
2022/03/25 01:14:43;;;;;;;15.37;13.73;;;;;;;4.08;100.00;101284.38;5024277;28;20529;-63
2022/03/25 01:17:08;;;;;;;16.33;14.63;;;;;;;4.05;100.00;101284.28;5029183;28;20187;-63
2022/03/25 01:19:34;;;;;;;16.70;14.00;;;;;;;4.00;100.00;101279.00;5031956;28;20203;-63
2022/03/25 01:22:00;;;;;;;17.27;14.80;;;;;;;3.94;100.00;101282.22;5022428;28;20266;-63
2022/03/25 01:24:27;;;;;;;15.77;14.10;;;;;;;3.89;100.00;101280.34;5029906;28;20184;-63
2022/03/25 01:26:52;;;;;;;17.07;15.27;;;;;;;3.82;100.00;101274.13;5030162;28;20202;-63
2022/03/25 01:29:18;;;;;;;19.27;16.00;;;;;;;3.79;100.00;101277.44;5025546;28;20211;-63
2022/03/25 01:31:43;;;;;;;17.00;14.67;;;;;;;3.77;100.00;101273.09;5030534;28;20272;-63
2022/03/25 01:34:08;;;;;;;18.13;14.40;;;;;;;3.76;100.00;101271.34;5024319;28;20215;-63
2022/03/25 01:36:34;;;;;;;17.07;14.13;;;;;;;3.74;100.00;101267.84;5027351;28;20199;-63
2022/03/25 01:38:59;;;;;;;17.37;14.97;;;;;;;3.72;100.00;101274.59;5026114;28;20243;-63
2022/03/25 01:41:25;;;;;;;16.93;14.87;;;;;;;3.70;100.00;101273.72;5025804;28;20597;-63
2022/03/25 01:43:54;;;;;;;20.17;16.60;;;;;;;3.70;100.00;101273.72;5024345;28;20190;-63
2022/03/25 01:46:19;;;;;;;17.27;15.37;;;;;;;3.67;100.00;101269.34;5023411;28;20187;-63
2022/03/25 01:48:44;;;;;;;16.63;14.57;;;;;;;3.64;100.00;101274.34;5026428;28;20285;-63
2022/03/25 01:51:10;;;;;;;18.53;15.23;;;;;;;3.61;100.00;101266.56;5024365;28;20270;-63
2022/03/25 01:53:36;;;;;;;17.90;14.80;;;;;;;3.59;100.00;101268.22;5031179;28;20191;-63
2022/03/25 01:56:02;;;;;;;18.87;16.00;;;;;;;3.56;100.00;101266.38;5026679;28;20519;-63
2022/03/25 01:58:31;;;;;;;19.17;15.50;;;;;;;3.54;100.00;101265.50;5023138;28;20230;-63
2022/03/25 02:00:58;;;;;;;17.13;15.33;;;;;;;3.53;100.00;101262.84;5024671;28;20257;-63
2022/03/25 02:03:24;;;;;;;17.63;15.73;;;;;;;3.52;100.00;101267.13;5023763;28;20191;-64
2022/03/25 02:05:50;;;;;;;16.47;14.67;;;;;;;3.50;100.00;101264.47;5023684;28;20194;-63
2022/03/25 02:08:16;;;;;;;18.60;15.00;;;;;;;3.49;100.00;101269.56;5024491;28;20203;-64
2022/03/25 02:10:42;;;;;;;16.77;14.17;;;;;;;3.47;100.00;101273.75;5029089;28;20190;-64
2022/03/25 02:13:09;;;;;;;17.10;14.57;;;;;;;3.43;100.00;101269.31;5022569;28;20325;-63
2022/03/25 02:15:37;;;;;;;16.87;14.73;;;;;;;3.41;100.00;101261.59;5028535;28;20259;-63
2022/03/25 02:18:19;;;;;;;16.63;14.07;;;;;;;3.41;100.00;101263.28;5032668;28;20581;-63
2022/03/25 02:20:46;;;;;;;17.67;14.70;;;;;;;3.40;100.00;101267.53;5029555;28;20178;-63
2022/03/25 02:23:12;;;;;;;16.57;14.73;;;;;;;3.38;100.00;101268.31;5035513;28;20191;-64
2022/03/25 02:25:39;;;;;;;20.60;15.83;;;;;;;3.33;100.00;101265.56;5023037;28;20364;-63
2022/03/25 02:28:06;;;;;;;19.47;15.73;;;;;;;3.29;100.00;101264.59;5020040;28;20696;-64
2022/03/25 02:30:33;;;;;;;20.87;16.13;;;;;;;3.25;100.00;101266.97;5030185;28;20664;-63
2022/03/25 02:33:02;;;;;;;20.47;15.83;;;;;;;3.20;100.00;101265.13;5033345;28;20187;-64
2022/03/25 02:35:54;;;;;;;17.90;14.83;;;;;;;3.17;100.00;101272.69;5030343;28;20210;-63
2022/03/25 02:38:22;;;;;;;21.97;14.80;;;;;;;3.13;100.00;101260.59;5023477;28;20249;-63
2022/03/25 02:40:48;;;;;;;20.80;15.53;;;;;;;3.10;100.00;101257.06;5033852;28;20770;-63
2022/03/25 02:43:14;;;;;;;22.27;15.53;;;;;;;3.06;100.00;101266.28;5030807;28;20326;-63
2022/03/25 02:45:40;;;;;;;21.07;14.43;;;;;;;3.01;100.00;101270.38;5028937;28;20234;-62
2022/03/25 02:48:06;;;;;;;21.63;15.47;;;;;;;2.96;100.00;101272.72;5027353;28;20214;-63
2022/03/25 02:50:32;;;;;;;16.33;14.07;;;;;;;2.94;100.00;101265.81;5029174;28;20278;-63
2022/03/25 02:52:58;;;;;;;19.33;13.97;;;;;;;2.92;100.00;101273.47;5025853;28;20238;-64
2022/03/25 02:55:24;;;;;;;15.40;13.80;;;;;;;2.88;100.00;101277.56;5031158;28;20268;-63
2022/03/25 02:57:50;;;;;;;18.30;13.87;;;;;;;2.85;100.00;101268.91;5025112;28;20183;-63
2022/03/25 03:00:17;;;;;;;17.63;14.33;;;;;;;2.84;100.00;101279.94;5027122;28;20695;-63
2022/03/25 03:02:43;;;;;;;17.07;13.70;;;;;;;2.81;100.00;101270.47;5020479;28;20257;-63
2022/03/25 03:05:08;;;;;;;18.23;14.57;;;;;;;2.82;100.00;101264.56;5029316;28;21053;-64
2022/03/25 03:07:37;;;;;;;16.23;14.53;;;;;;;2.83;100.00;101268.84;5026887;28;20196;-63
2022/03/25 03:10:07;;;;;;;17.80;15.37;;;;;;;2.83;100.00;101268.84;5024672;28;20298;-63
2022/03/25 03:12:35;;;;;;;20.47;16.33;;;;;;;2.83;100.00;101268.84;5029567;28;20192;-64
2022/03/25 03:15:00;;;;;;;17.83;15.23;;;;;;;2.81;100.00;101267.03;5029961;28;20186;-63
2022/03/25 03:17:26;;;;;;;18.87;16.40;;;;;;;2.78;100.00;101270.34;5029180;28;20590;-63
2022/03/25 03:19:52;;;;;;;17.93;15.90;;;;;;;2.75;100.00;101270.22;5024448;28;20255;-63
2022/03/25 03:22:17;;;;;;;20.40;16.93;;;;;;;2.70;100.00;101270.06;5029256;28;20645;-62
2022/03/25 03:24:43;;;;;;;17.17;15.37;;;;;;;2.64;100.00;101263.84;5036348;28;20651;-63
2022/03/25 03:27:10;;;;;;;18.43;16.20;;;;;;;2.62;100.00;101274.00;5031855;28;20585;-63
2022/03/25 03:29:36;;;;;;;19.33;16.17;;;;;;;2.59;100.00;101261.09;5029326;28;20216;-63
2022/03/25 03:32:02;;;;;;;20.97;16.40;;;;;;;2.56;100.00;101264.41;5028521;28;20558;-63
2022/03/25 03:34:28;;;;;;;19.30;16.13;;;;;;;2.55;100.00;101261.78;5030553;28;20197;-63
2022/03/25 03:36:53;;;;;;;21.53;16.90;;;;;;;2.52;100.00;101262.53;5031090;28;20191;-63
2022/03/25 03:39:18;;;;;;;19.10;16.27;;;;;;;2.52;100.00;101254.00;5025971;28;20692;-64
2022/03/25 03:41:44;;;;;;;19.60;17.13;;;;;;;2.51;100.00;101257.34;5031083;28;20651;-63
2022/03/25 03:44:09;;;;;;;20.67;17.23;;;;;;;2.49;100.00;101252.19;5031417;28;20194;-63
2022/03/25 03:46:35;;;;;;;20.17;17.37;;;;;;;2.44;100.00;101258.78;5025212;28;20214;-63
2022/03/25 03:49:01;;;;;;;19.27;16.53;;;;;;;2.39;100.00;101258.63;5031340;28;20214;-62
2022/03/25 03:51:26;;;;;;;21.40;16.73;;;;;;;2.35;100.00;101261.84;5030609;28;20631;-64
2022/03/25 03:53:52;;;;;;;19.40;16.33;;;;;;;2.33;100.00;101257.50;5025738;28;20196;-64
2022/03/25 03:56:17;;;;;;;20.43;16.60;;;;;;;2.31;100.00;101257.44;5024509;28;20199;-63
2022/03/25 03:58:42;;;;;;;22.43;16.50;;;;;;;2.26;100.00;101256.38;5020178;28;20208;-63
2022/03/25 04:01:07;;;;;;;20.03;17.23;;;;;;;2.21;100.00;101256.19;5025547;28;20202;-63
2022/03/25 04:03:33;;;;;;;16.97;15.13;;;;;;;2.18;100.00;101250.97;5024636;28;20199;-63
2022/03/25 04:06:00;;;;;;;17.50;15.57;;;;;;;2.15;100.00;101255.94;5028354;28;20194;-63
2022/03/25 04:08:25;;;;;;;22.53;16.93;;;;;;;2.10;100.00;101258.31;5021537;28;20298;-63
2022/03/25 04:10:51;;;;;;;17.43;15.53;;;;;;;2.06;100.00;101258.97;5030657;28;20615;-63
2022/03/25 04:13:16;;;;;;;18.77;15.47;;;;;;;2.03;100.00;101260.53;5029456;28;20647;-63
2022/03/25 04:15:41;;;;;;;20.67;16.37;;;;;;;2.00;100.00;101266.41;5030974;28;20638;-64
2022/03/25 04:18:07;;;;;;;19.37;16.73;;;;;;;1.99;100.00;101259.56;5026049;28;20328;-63
2022/03/25 04:20:33;;;;;;;20.77;15.97;;;;;;;1.98;100.00;101258.66;5028047;28;20184;-63
2022/03/25 04:22:58;;;;;;;23.17;17.77;;;;;;;1.96;100.00;101256.88;5028901;28;20687;-63
2022/03/25 04:25:24;;;;;;;22.20;17.63;;;;;;;1.94;100.00;101264.47;5029026;28;20206;-63
2022/03/25 04:27:52;;;;;;;17.70;14.97;;;;;;;1.92;100.00;101263.53;5034108;28;20195;-63
2022/03/25 04:30:28;;;;;;;21.37;16.97;;;;;;;1.91;100.00;101264.34;5029709;28;20655;-63
2022/03/25 04:32:55;;;;;;;19.30;16.20;;;;;;;1.91;100.00;101261.78;5037891;28;20193;-63
2022/03/25 04:35:21;;;;;;;22.77;17.40;;;;;;;1.91;100.00;101266.00;5031986;28;20198;-63
2022/03/25 04:37:47;;;;;;;20.00;16.60;;;;;;;1.90;100.00;101261.69;5035616;28;20545;-63
2022/03/25 04:40:17;;;;;;;19.60;17.23;;;;;;;1.88;100.00;101258.25;5032449;28;20188;-63
2022/03/25 04:42:43;;;;;;;20.70;17.53;;;;;;;1.88;100.00;101255.69;5026524;28;20639;-63
2022/03/25 04:45:09;;;;;;;21.47;16.83;;;;;;;1.86;100.00;101259.84;5029978;28;20214;-63
2022/03/25 04:47:34;;;;;;;20.53;16.93;;;;;;;1.83;100.00;101253.81;5036624;28;20761;-63
2022/03/25 04:49:59;;;;;;;20.37;16.03;;;;;;;1.81;100.00;101254.56;5034163;28;20237;-63
2022/03/25 04:52:25;;;;;;;22.07;16.50;;;;;;;1.80;100.00;101255.34;5034149;28;20266;-64
2022/03/25 04:54:51;;;;;;;21.47;17.40;;;;;;;1.77;100.00;101258.63;5036855;28;20187;-64
2022/03/25 04:57:17;;;;;;;24.27;17.93;;;;;;;1.73;100.00;101259.31;5036005;28;20188;-62
2022/03/25 04:59:42;;;;;;;21.00;17.17;;;;;;;1.72;100.00;101254.13;5031189;28;20216;-64
2022/03/25 05:02:09;;;;;;;20.63;17.17;;;;;;;1.70;100.00;101255.75;5025255;28;20249;-63
2022/03/25 05:04:35;;;;;;;23.07;17.63;;;;;;;1.65;100.00;101259.00;5025840;28;20187;-63
2022/03/25 05:07:01;;;;;;;21.43;17.57;;;;;;;1.60;100.00;101257.91;5025202;28;20191;-62
2022/03/25 05:09:26;;;;;;;19.40;16.93;;;;;;;1.54;100.00;101256.78;5037394;28;20226;-65
2022/03/25 05:11:52;;;;;;;21.20;17.07;;;;;;;1.49;100.00;101264.25;5035882;28;20202;-62
2022/03/25 05:14:18;;;;;;;19.43;17.10;;;;;;;1.43;100.00;101266.50;5027118;28;20210;-65
2022/03/25 05:16:43;;;;;;;20.47;16.90;;;;;;;1.37;100.00;101273.06;5025419;28;20637;-62
2022/03/25 05:19:09;;;;;;;18.90;15.73;;;;;;;1.33;100.00;101276.31;5029701;28;20219;-65
2022/03/25 05:21:35;;;;;;;20.73;17.07;;;;;;;1.33;100.00;101270.31;5033038;28;20640;-63
2022/03/25 05:24:01;;;;;;;20.13;17.40;;;;;;;1.30;100.00;101286.38;5031336;28;20192;-62
2022/03/25 05:26:26;;;;;;;23.27;18.37;;;;;;;1.31;100.00;101279.56;5031935;28;20273;-63
2022/03/25 05:28:51;;;;;;;22.37;18.27;;;;;;;1.33;100.00;101283.97;5025829;28;20215;-63
2022/03/25 05:31:17;;;;;;;28.33;20.67;;;;;;;1.36;100.00;101290.88;5025079;28;20194;-63
2022/03/25 05:33:42;;;;;;;26.83;20.43;;;;;;;1.36;100.00;101295.97;5031971;28;20205;-63
2022/03/25 05:36:08;;;;;;;23.87;19.73;;;;;;;1.36;100.00;101298.53;5028188;28;20188;-63
2022/03/25 05:38:33;;;;;;;21.53;19.17;;;;;;;1.37;100.00;101297.72;5026684;28;20579;-63
2022/03/25 05:40:59;;;;;;;30.33;26.90;;;;;;;1.39;100.00;101296.13;5031854;28;20188;-63
2022/03/25 05:43:24;;;;;;;31.37;27.37;;;;;;;1.45;100.00;101293.81;5035004;28;20587;-63
2022/03/25 05:45:50;;;;;;;37.40;33.30;;;;;;;1.54;100.00;101300.16;5035317;28;20201;-63
2022/03/25 05:48:15;;;;;;;39.43;33.73;;;;;;;1.66;100.00;101308.34;5036539;28;20226;-63
2022/03/25 05:50:41;;;;;;;35.27;30.83;;;;;;;1.79;100.00;101307.22;5022689;28;20216;-63
2022/03/25 05:53:06;;;;;;;31.80;27.60;;;;;;;1.92;100.00;101309.47;5031817;28;20731;-63
2022/03/25 05:55:32;;;;;;;28.50;25.40;;;;;;;2.08;100.00;101311.00;5026541;28;20192;-63
2022/03/25 05:57:58;;;;;;;25.73;22.47;;;;;;;2.29;100.00;101310.16;5034575;28;20292;-63
2022/03/25 06:00:23;;;;;;;24.47;20.13;;;;;;;2.47;100.00;101306.63;5029719;28;20262;-64
2022/03/25 06:02:49;;;;;;;28.47;20.07;;;;;;;2.56;100.00;101317.19;5022015;28;20195;-63
2022/03/25 06:05:15;;;;;;;25.30;19.40;;;;;;;2.59;100.00;101315.63;5025771;28;20705;-63
2022/03/25 06:07:45;;;;;;;24.63;19.17;;;;;;;2.64;100.00;101315.84;5032165;28;20192;-65
2022/03/25 06:10:11;;;;;;;28.40;20.33;;;;;;;2.76;100.00;101310.31;5025197;28;20574;-63
2022/03/25 06:12:38;;;;;;;24.17;18.77;;;;;;;2.93;100.00;101312.66;5019245;28;20564;-63
2022/03/25 06:15:04;;;;;;;23.43;17.80;;;;;;;3.19;100.00;101308.56;5025647;28;20341;-63
2022/03/25 06:17:30;;;;;;;21.73;17.00;;;;;;;3.61;100.00;101320.34;5019909;28;20188;-63
2022/03/25 06:19:56;;;;;;;21.40;17.33;;;;;;;3.95;100.00;101316.38;5023209;28;20268;-63
2022/03/25 06:22:24;;;;;;;21.57;18.10;;;;;;;4.23;100.00;101317.34;5026736;28;20184;-63
2022/03/25 06:24:51;;;;;;;20.53;16.93;;;;;;;4.48;100.00;101310.47;5020900;28;20559;-63
2022/03/25 06:27:16;;;;;;;20.77;16.53;;;;;;;4.83;100.00;101315.84;5024895;28;20195;-63
2022/03/25 06:29:41;;;;;;;19.53;16.27;;;;;;;5.09;100.00;101326.03;5023672;28;20349;-63
2022/03/25 06:32:07;;;;;;;21.27;16.17;;;;;;;5.26;99.84;101317.16;5024923;28;20569;-63
2022/03/25 06:34:33;;;;;;;22.90;16.93;;;;;;;5.52;99.12;101316.16;5023719;28;20183;-63
2022/03/25 06:36:59;;;;;;;21.43;17.57;;;;;;;5.82;97.98;101317.84;5028050;28;20214;-63
2022/03/25 06:39:24;;;;;;;21.97;16.73;;;;;;;6.13;97.18;101316.97;5022959;28;20548;-64
2022/03/25 06:41:49;;;;;;;20.30;17.37;;;;;;;6.41;95.28;101315.09;5020481;28;20187;-64
2022/03/25 06:44:16;;;;;;;22.93;17.83;;;;;;;6.60;94.65;101318.13;5021336;28;20227;-64
2022/03/25 06:46:41;;;;;;;18.97;16.40;;;;;;;6.67;94.36;101322.56;5022264;28;20248;-63
2022/03/25 06:49:07;;;;;;;21.73;17.97;;;;;;;6.63;94.23;101325.94;5019260;28;20219;-63
2022/03/25 06:51:33;;;;;;;22.07;17.90;;;;;;;6.51;94.45;101332.50;5020012;28;20215;-63
2022/03/25 06:53:59;;;;;;;22.60;18.90;;;;;;;6.51;94.87;101332.50;5028991;28;20191;-63
2022/03/25 06:56:25;;;;;;;26.03;20.57;;;;;;;6.53;94.08;101332.56;5026035;28;20657;-64
2022/03/25 06:58:50;;;;;;;25.07;19.80;;;;;;;6.53;94.10;101341.13;5022689;28;20251;-63
2022/03/25 07:01:16;;;;;;;23.43;19.30;;;;;;;6.50;93.54;101341.06;5022059;28;20648;-64
2022/03/25 07:03:42;;;;;;;25.60;19.17;;;;;;;6.55;93.47;101343.75;5024423;28;20196;-63
2022/03/25 07:06:08;;;;;;;24.07;19.10;;;;;;;6.76;92.98;101345.06;5024343;28;20191;-63
2022/03/25 07:08:34;;;;;;;27.63;21.20;;;;;;;6.97;91.67;101350.75;5025050;28;20211;-63
2022/03/25 07:11:00;;;;;;;28.50;21.87;;;;;;;7.14;90.57;101352.84;5027648;28;20198;-63
2022/03/25 07:13:26;;;;;;;28.07;22.47;;;;;;;7.37;89.58;101348.19;5026663;28;20194;-63
2022/03/25 07:15:52;;;;;;;26.63;21.83;;;;;;;7.61;88.52;101349.53;5029887;28;20287;-63
2022/03/25 07:18:18;;;;;;;29.93;22.73;;;;;;;7.75;86.50;101347.22;5033780;28;20616;-63
2022/03/25 07:20:43;;;;;;;26.63;22.03;;;;;;;7.87;85.66;101352.63;5030528;28;20192;-63
2022/03/25 07:23:09;;;;;;;26.57;22.10;;;;;;;7.97;84.92;101350.22;5032862;28;20196;-64
2022/03/25 07:25:34;;;;;;;31.53;23.80;;;;;;;7.93;83.18;101354.44;5030941;28;20202;-63
2022/03/25 07:28:00;;;;;;;42.47;24.50;;;;;;;7.98;83.33;101350.25;5025350;28;20249;-64
2022/03/25 07:30:25;;;;;;;30.97;24.30;;;;;;;8.01;82.53;101358.06;5030452;28;20585;-63
2022/03/25 07:32:51;;;;;;;28.70;22.77;;;;;;;8.02;82.33;101358.91;5026117;28;20701;-63
2022/03/25 07:35:17;;;;;;;29.47;23.93;;;;;;;8.08;82.28;101359.03;5025532;28;20222;-63
2022/03/25 07:37:43;;;;;;;30.97;24.90;;;;;;;8.09;81.20;101365.94;5034924;28;20186;-63
2022/03/25 07:40:11;;;;;;;31.43;24.90;;;;;;;8.16;81.37;101361.75;5027999;28;20197;-63
2022/03/25 07:42:37;;;;;;;36.60;27.30;;;;;;;8.17;80.13;101364.34;5026842;28;20338;-63
2022/03/25 07:45:05;;;;;;;32.37;25.43;;;;;;;8.29;79.98;101363.72;5027431;28;20201;-63
2022/03/25 07:47:32;;;;;;;33.27;26.37;;;;;;;8.44;79.45;101368.25;5022668;28;20191;-63
2022/03/25 07:49:59;;;;;;;31.27;25.57;;;;;;;8.54;78.95;101362.47;5025276;28;20218;-63
2022/03/25 07:52:24;;;;;;;34.43;27.73;;;;;;;8.45;77.29;101356.25;5019651;28;20639;-63
2022/03/25 07:54:50;;;;;;;35.37;26.07;;;;;;;8.54;77.90;101356.41;5029915;28;20189;-63
2022/03/25 07:57:15;;;;;;;33.70;26.17;;;;;;;8.69;77.61;101371.28;5037256;28;20653;-63
2022/03/25 07:59:41;;;;;;;36.10;28.17;;;;;;;8.77;77.63;101374.84;5043432;28;20299;-63
2022/03/25 08:02:09;;;;;;;34.50;26.57;;;;;;;8.82;77.99;101369.75;5034895;28;20278;-63
2022/03/25 08:04:34;;;;;;;34.07;28.13;;;;;;;8.93;77.82;101375.94;5028398;28;20193;-62
2022/03/25 08:06:59;;;;;;;31.63;26.80;;;;;;;9.02;77.40;101371.78;5034892;28;20190;-63
2022/03/25 08:09:25;;;;;;;34.90;27.87;;;;;;;9.00;76.88;101364.88;5040832;28;20291;-63
2022/03/25 08:11:50;;;;;;;45.37;27.40;;;;;;;9.09;76.44;101369.31;5031368;28;20198;-63
2022/03/25 08:14:17;;;;;;;30.93;26.10;;;;;;;9.23;76.29;101366.06;5039023;28;20199;-63
2022/03/25 08:16:44;;;;;;;33.43;27.00;;;;;;;9.17;75.61;101365.97;5040691;28;20190;-63
2022/03/25 08:19:11;;;;;;;33.97;25.97;;;;;;;9.34;75.47;101358.47;5041149;28;20215;-63
2022/03/25 08:21:36;;;;;;;30.53;25.17;;;;;;;9.44;74.18;101360.31;5048949;28;20276;-63
2022/03/25 08:29:30;;;;;;;29.17;25.50;;;;;;;9.88;73.59;101365.16;5027445;28;20592;-62
2022/03/25 08:31:55;;;;;;;31.47;25.47;;;;;;;10.03;73.22;101366.16;5034152;28;20190;-62
2022/03/25 08:34:21;;;;;;;30.57;25.43;;;;;;;10.07;72.18;101358.44;5043116;28;20202;-62
2022/03/25 08:36:48;;;;;;;33.77;26.80;;;;;;;10.11;71.97;101364.53;5035745;28;20198;-62
2022/03/25 08:39:17;;;;;;;32.17;26.30;;;;;;;10.30;72.31;101362.13;5042697;28;20733;-62
2022/03/25 08:41:43;;;;;;;35.83;27.53;;;;;;;10.35;71.14;101361.34;5037080;28;20198;-63
2022/03/25 08:44:09;;;;;;;31.50;25.40;;;;;;;10.51;71.53;101371.84;5028039;28;20264;-63
2022/03/25 08:46:35;;;;;;;31.63;26.30;;;;;;;10.61;71.17;101363.31;5039309;28;20187;-62
2022/03/25 08:49:01;;;;;;;35.97;27.03;;;;;;;10.63;70.32;101361.59;5035834;28;20234;-63
2022/03/25 08:51:27;;;;;;;32.63;26.60;;;;;;;10.87;70.65;101365.22;5039199;28;20192;-62
2022/03/25 08:53:53;;;;;;;33.43;26.50;;;;;;;11.05;70.26;101367.06;5042542;28;20201;-63
2022/03/25 08:56:27;;;;;;;33.50;25.87;;;;;;;11.08;69.58;101363.63;5037545;28;20675;-63
2022/03/25 08:58:54;;;;;;;34.13;26.07;;;;;;;11.10;68.67;101365.38;5033614;28;20226;-64
2022/03/25 09:01:20;;;;;;;36.50;29.00;;;;;;;11.23;69.19;101363.72;5039182;28;20187;-64
2022/03/25 09:03:46;;;;;;;31.10;26.70;;;;;;;11.41;68.87;101359.50;5035662;28;20550;-64
2022/03/25 09:06:12;;;;;;;32.50;27.17;;;;;;;11.40;67.75;101356.03;5021067;28;20180;-63
2022/03/25 09:08:37;;;;;;;36.87;25.63;;;;;;;11.49;67.98;101356.94;5027428;28;20757;-63
2022/03/25 09:11:03;;;;;;;33.13;25.40;;;;;;;11.68;67.89;101363.06;5028541;28;20191;-63
2022/03/25 09:13:29;;;;;;;30.43;25.57;;;;;;;11.83;67.15;101359.66;5030685;28;20180;-63
2022/03/25 09:15:54;;;;;;;33.33;26.30;;;;;;;11.80;66.14;101357.06;5025710;28;20620;-63
2022/03/25 09:18:20;;;;;;;34.10;26.60;;;;;;;11.88;65.78;101358.78;5028069;28;20709;-62
2022/03/25 09:20:46;;;;;;;32.67;26.43;;;;;;;11.90;65.59;101353.63;5027861;28;20764;-63
2022/03/25 09:23:12;;;;;;;32.13;26.10;;;;;;;12.03;65.50;101359.72;5027834;28;20233;-62
2022/03/25 09:25:38;;;;;;;34.07;27.17;;;;;;;12.13;65.08;101356.31;5024693;28;20184;-62
2022/03/25 09:28:04;;;;;;;33.07;26.43;;;;;;;12.32;64.89;101358.94;5025733;28;20207;-62
2022/03/25 09:30:30;;;;;;;32.00;26.67;;;;;;;12.51;63.56;101359.81;5026667;28;20211;-63
2022/03/25 09:32:58;;;;;;;31.80;27.37;;;;;;;12.58;63.79;101353.72;5023475;28;20332;-63
2022/03/25 09:35:23;;;;;;;32.33;26.03;;;;;;;12.69;63.86;101355.47;5021985;28;20212;-63
2022/03/25 09:37:50;;;;;;;29.10;25.07;;;;;;;12.83;63.72;101358.06;5023314;28;20687;-63
2022/03/25 09:40:22;;;;;;;32.67;26.67;;;;;;;13.00;63.13;101350.25;5027184;28;20231;-63
2022/03/25 09:42:50;;;;;;;29.77;26.53;;;;;;;13.06;62.61;101353.69;5027672;28;20646;-63
2022/03/25 09:45:17;;;;;;;34.33;26.87;;;;;;;12.98;62.27;101349.38;5025337;28;20195;-62
2022/03/25 09:47:44;;;;;;;30.70;26.77;;;;;;;13.10;62.42;101347.59;5017278;28;20195;-62
2022/03/25 09:50:12;;;;;;;31.20;26.90;;;;;;;13.31;62.23;101351.03;5020644;28;20225;-62
2022/03/25 09:52:39;;;;;;;30.03;25.50;;;;;;;13.38;61.75;101344.94;5024660;28;20186;-62
2022/03/25 09:55:05;;;;;;;33.53;28.27;;;;;;;13.47;62.12;101336.25;5029289;28;20212;-62
2022/03/25 09:57:31;;;;;;;30.13;25.23;;;;;;;13.60;61.33;101336.22;5031434;28;20649;-63
2022/03/25 09:59:57;;;;;;;33.30;28.13;;;;;;;13.68;61.77;101334.44;5043268;28;20212;-63
2022/03/25 10:02:24;;;;;;;31.90;26.27;;;;;;;13.76;61.14;101337.88;5039535;28;20195;-63
2022/03/25 10:04:50;;;;;;;31.30;26.83;;;;;;;13.85;60.90;101330.00;5025082;28;20196;-62
2022/03/25 10:07:16;;;;;;;29.87;26.47;;;;;;;13.77;60.93;101321.38;5032470;28;20194;-63
2022/03/25 10:09:43;;;;;;;29.73;26.10;;;;;;;13.85;60.77;101317.00;5037896;28;20205;-62
2022/03/25 10:12:26;;;;;;;31.53;27.57;;;;;;;14.11;60.17;101322.91;5040261;28;20191;-63
2022/03/25 10:15:09;;;;;;;34.00;27.00;;;;;;;14.17;59.65;101322.84;5023696;28;20186;-63
2022/03/25 10:18:06;;;;;;;31.70;26.80;;;;;;;14.17;59.61;101309.84;5026558;28;20566;-63
2022/03/25 10:20:41;;;;;;;30.73;26.20;;;;;;;14.31;59.88;101318.41;5040993;28;20176;-65
2022/03/25 10:23:07;;;;;;;28.73;25.63;;;;;;;14.42;59.18;101317.47;5024728;28;20275;-63
2022/03/25 10:25:40;;;;;;;29.33;26.03;;;;;;;14.57;58.47;101317.34;5025352;28;20268;-63
2022/03/25 10:28:30;;;;;;;31.27;27.83;;;;;;;14.56;58.75;101310.41;5025251;28;20208;-63
2022/03/25 10:31:02;;;;;;;33.43;27.77;;;;;;;14.56;56.50;101313.00;5025695;28;20271;-63
2022/03/25 10:33:30;;;;;;;35.50;28.57;;;;;;;14.56;56.15;101317.34;5018892;28;20545;-63
2022/03/25 10:35:57;;;;;;;32.37;27.97;;;;;;;14.48;55.27;101314.78;5020527;28;20189;-63
2022/03/25 10:38:25;;;;;;;35.43;28.27;;;;;;;14.51;55.75;101306.97;5022021;28;20676;-63
2022/03/25 10:40:52;;;;;;;33.33;29.00;;;;;;;14.66;56.46;101311.19;5031132;28;20179;-63
2022/03/25 10:43:18;;;;;;;32.37;27.50;;;;;;;14.81;56.01;101304.97;5047828;28;20542;-63
2022/03/25 10:45:45;;;;;;;30.07;26.23;;;;;;;15.00;56.85;101300.41;5035615;28;20194;-63
2022/03/25 10:48:24;;;;;;;33.77;28.93;;;;;;;15.01;54.56;101301.28;5034003;28;20296;-63
2022/03/25 10:51:08;;;;;;;34.90;28.97;;;;;;;14.98;55.48;101296.97;5028961;28;20703;-63
2022/03/25 10:53:35;;;;;;;33.13;27.63;;;;;;;15.07;55.65;101299.47;5023623;28;20182;-65
2022/03/25 10:56:06;;;;;;;35.63;28.10;;;;;;;15.19;56.47;101297.59;5039797;28;20195;-64
2022/03/25 10:58:33;;;;;;;35.53;28.77;;;;;;;15.41;55.95;101292.13;5035313;28;20203;-63
2022/03/25 11:00:59;;;;;;;34.13;29.67;;;;;;;15.60;54.99;101296.19;5039702;28;20175;-63
2022/03/25 11:03:24;;;;;;;30.80;27.43;;;;;;;15.54;55.24;101289.31;5040294;28;20183;-63
2022/03/25 11:05:51;;;;;;;32.40;28.90;;;;;;;15.60;55.37;101303.19;5045800;28;20190;-63
2022/03/25 11:08:17;;;;;;;33.30;28.97;;;;;;;15.66;55.18;101285.69;5037608;28;20203;-63
2022/03/25 11:10:43;;;;;;;36.37;30.10;;;;;;;15.70;54.81;101294.31;5042871;28;20207;-62
2022/03/25 11:13:09;;;;;;;32.93;28.80;;;;;;;15.50;54.97;101282.41;5046200;28;20210;-63